Time;durP1;ratioP1;P1;durP2;ratioP2;P2;SDS_P1;SDS_P2;PMS_P1;PMS_P2;Temp;Humidity;BMP_temperature;BMP_pressure;BME280_temperature;BME280_humidity;BME280_pressure;Samples;Min_cycle;Max_cycle;Signal;HPM_P1;HPM_P2
2023/11/18 00:01:32;;;;;;;2.75;1.50;;;;;;;5.06;81.89;93363.25;2068920;69;20183;-81
2023/11/18 00:03:58;;;;;;;2.38;1.40;;;;;;;4.98;81.98;93350.59;2071821;69;20709;-84
2023/11/18 00:06:24;;;;;;;1.63;1.15;;;;;;;4.99;81.98;93361.22;2068519;69;20149;-82
2023/11/18 00:08:50;;;;;;;1.40;1.00;;;;;;;5.04;81.73;93363.09;2072473;69;20140;-85
2023/11/18 00:11:15;;;;;;;1.27;0.90;;;;;;;4.95;81.29;93349.69;2071963;69;20189;-84
2023/11/18 00:13:44;;;;;;;1.38;0.90;;;;;;;4.99;82.18;93377.22;2071953;69;20135;-84
2023/11/18 00:16:15;;;;;;;1.65;0.98;;;;;;;4.97;82.11;93357.50;2071898;69;20152;-85
2023/11/18 00:18:48;;;;;;;2.03;1.20;;;;;;;4.99;81.95;93363.25;2072116;69;20152;-84
2023/11/18 00:21:14;;;;;;;1.27;0.90;;;;;;;5.00;81.96;93375.94;2071235;69;20178;-83
2023/11/18 00:23:40;;;;;;;2.75;1.10;;;;;;;4.97;81.84;93365.88;2068510;69;20630;-84
2023/11/18 00:26:06;;;;;;;2.55;1.50;;;;;;;4.59;83.24;93370.13;2068391;69;20164;-85
2023/11/18 00:28:32;;;;;;;3.50;1.77;;;;;;;4.43;84.62;93367.88;2072123;69;20167;-86
2023/11/18 00:30:59;;;;;;;2.90;1.88;;;;;;;4.44;85.24;93356.16;2068840;69;20144;-84
2023/11/18 00:33:26;;;;;;;2.15;1.80;;;;;;;4.69;84.25;93366.78;2065341;69;20182;-84
2023/11/18 00:35:52;;;;;;;2.65;1.63;;;;;;;4.83;83.29;93356.94;2068527;69;20171;-83
2023/11/18 00:38:17;;;;;;;2.58;1.70;;;;;;;4.69;82.86;93322.91;2071908;69;20156;-81
2023/11/18 00:40:43;;;;;;;3.65;2.00;;;;;;;4.92;82.94;93341.69;2068705;69;20565;-83
2023/11/18 00:43:09;;;;;;;2.90;2.10;;;;;;;4.87;82.70;93354.53;2068617;69;20184;-82
2023/11/18 00:45:35;;;;;;;1.90;1.70;;;;;;;4.85;82.93;93359.91;2068323;69;20225;-84
2023/11/18 00:48:00;;;;;;;2.70;2.42;;;;;;;4.84;82.39;93350.06;2068624;69;20172;-84
2023/11/18 00:50:26;;;;;;;3.33;1.90;;;;;;;4.88;82.77;93358.06;2068376;69;20174;-82
2023/11/18 00:52:52;;;;;;;2.05;1.60;;;;;;;4.72;82.11;93330.16;2071732;69;20206;-84
2023/11/18 00:55:18;;;;;;;1.38;1.10;;;;;;;4.88;82.31;93358.06;2071586;69;20144;-83
2023/11/18 00:57:46;;;;;;;2.33;1.38;;;;;;;4.82;82.82;93353.41;2068385;69;20160;-83
2023/11/18 01:00:21;;;;;;;1.38;1.23;;;;;;;4.80;82.29;93355.25;2068431;69;20241;-85
2023/11/18 01:02:49;;;;;;;0.98;0.88;;;;;;;4.71;82.17;93350.22;2068621;69;20144;-83
2023/11/18 01:05:15;;;;;;;1.83;0.93;;;;;;;4.53;82.45;93338.88;2068046;69;20146;-85
2023/11/18 01:07:42;;;;;;;1.63;0.90;;;;;;;4.60;82.29;93345.78;2071186;69;20182;-82
2023/11/18 01:10:09;;;;;;;0.70;0.70;;;;;;;4.53;81.89;93341.66;2067898;69;20144;-83
2023/11/18 01:12:37;;;;;;;0.95;0.73;;;;;;;4.42;82.19;93330.13;2067735;69;20875;-82
2023/11/18 01:15:04;;;;;;;1.27;1.00;;;;;;;4.46;81.96;93338.88;2064970;69;20263;-83
2023/11/18 01:17:31;;;;;;;2.28;1.02;;;;;;;4.40;81.47;93350.22;2067908;69;20136;-84
2023/11/18 01:19:58;;;;;;;1.08;0.98;;;;;;;4.24;82.47;93341.06;2067971;69;20602;-82
2023/11/18 01:22:25;;;;;;;1.17;0.80;;;;;;;4.24;83.11;93341.06;2067851;69;20599;-82
2023/11/18 01:24:51;;;;;;;1.35;0.90;;;;;;;4.24;82.69;93338.28;2070991;69;20194;-83
2023/11/18 01:27:19;;;;;;;0.65;0.60;;;;;;;4.30;82.09;93352.78;2071216;69;20144;-85
2023/11/18 01:29:46;;;;;;;1.75;0.40;;;;;;;4.28;82.11;93360.97;2067914;69;20255;-86
2023/11/18 01:32:14;;;;;;;1.08;0.45;;;;;;;4.14;82.68;93354.06;2071229;69;20180;-84
2023/11/18 01:34:39;;;;;;;0.60;0.60;;;;;;;4.08;82.88;93361.84;2067925;69;20183;-83
2023/11/18 01:37:09;;;;;;;4.05;0.80;;;;;;;4.19;82.39;93369.88;2071319;69;20521;-83
2023/11/18 01:39:36;;;;;;;1.85;0.70;;;;;;;4.02;82.29;93353.63;2070538;69;20152;-82
2023/11/18 01:42:05;;;;;;;1.00;0.90;;;;;;;4.19;82.95;93371.91;2064994;69;20321;-83
2023/11/18 01:44:31;;;;;;;2.05;0.90;;;;;;;4.10;82.32;93367.59;2071204;69;20144;-83
2023/11/18 01:46:58;;;;;;;1.25;0.80;;;;;;;4.08;82.07;93370.22;2065063;69;20160;-83
2023/11/18 01:49:30;;;;;;;1.00;0.90;;;;;;;4.00;82.42;93363.88;2065475;69;20160;-83
2023/11/18 01:52:01;;;;;;;1.05;0.95;;;;;;;3.97;82.54;93362.19;2068391;69;20135;-84
2023/11/18 01:54:28;;;;;;;1.10;0.80;;;;;;;3.96;82.50;93372.56;2071761;69;20239;-83
2023/11/18 01:56:55;;;;;;;0.75;0.75;;;;;;;3.96;82.41;93374.63;2068191;69;20147;-82
2023/11/18 01:59:20;;;;;;;0.57;0.50;;;;;;;3.93;82.46;93370.88;2068328;69;20148;-82
2023/11/18 02:01:57;;;;;;;0.50;0.50;;;;;;;3.78;82.29;93357.66;2068314;69;20149;-82
2023/11/18 02:04:23;;;;;;;0.60;0.50;;;;;;;3.68;82.10;93361.50;2068179;69;20184;-82
2023/11/18 02:06:49;;;;;;;0.80;0.70;;;;;;;3.71;82.95;93361.16;2068408;69;20164;-83
2023/11/18 02:09:27;;;;;;;1.50;1.10;;;;;;;3.30;83.72;93337.03;2071749;69;20575;-84
2023/11/18 02:11:59;;;;;;;1.67;1.20;;;;;;;3.59;83.02;93359.25;2071730;69;20266;-87
2023/11/18 02:14:26;;;;;;;;;;;;;;;3.65;82.87;93363.34;2072107;69;20135;-86
2023/11/18 02:16:55;;;;;;;0.60;0.60;;;;;;;3.50;82.66;93347.31;2072153;69;20539;-84
2023/11/18 02:19:24;;;;;;;0.40;0.40;;;;;;;3.16;82.52;93311.34;2068216;69;20590;-83
2023/11/18 02:21:51;;;;;;;0.40;0.40;;;;;;;3.50;82.75;93366.06;2065535;69;20273;-82
2023/11/18 02:24:30;;;;;;;1.02;0.30;;;;;;;3.32;82.93;93345.56;2071571;69;20588;-82
2023/11/18 02:26:58;;;;;;;0.35;0.32;;;;;;;3.18;82.54;93319.88;2068339;69;20239;-82
2023/11/18 02:29:35;;;;;;;1.20;1.00;;;;;;;3.40;83.65;93362.31;2068300;69;20225;-82
2023/11/18 02:32:23;;;;;;;1.88;1.50;;;;;;;3.48;83.81;93377.00;2068451;69;20162;-86
2023/11/18 02:34:57;;;;;;;1.70;1.30;;;;;;;3.39;83.81;93369.91;2068141;69;20183;-82
2023/11/18 02:37:24;;;;;;;2.17;1.90;;;;;;;3.44;83.20;93376.63;2068295;69;20192;-84
2023/11/18 02:39:58;;;;;;;2.40;1.55;;;;;;;3.46;83.24;93371.25;2068311;69;20144;-81
2023/11/18 02:42:24;;;;;;;2.55;1.60;;;;;;;3.43;84.31;93377.91;2071736;69;20159;-83
2023/11/18 02:44:59;;;;;;;3.13;1.92;;;;;;;3.40;84.23;93365.09;2068424;69;20588;-82
2023/11/18 02:47:26;;;;;;;2.13;1.63;;;;;;;3.47;84.23;93367.91;2068439;69;20139;-82
2023/11/18 02:50:06;;;;;;;2.83;2.22;;;;;;;3.43;84.24;93361.94;2071625;69;20172;-84
2023/11/18 02:52:34;;;;;;;3.17;2.10;;;;;;;3.38;83.99;93362.84;2068203;69;20255;-83
2023/11/18 02:55:00;;;;;;;3.30;2.30;;;;;;;3.37;83.93;93357.81;2068233;69;20143;-82
2023/11/18 02:57:26;;;;;;;3.17;1.95;;;;;;;3.37;82.95;93341.88;2071795;69;20500;-84
2023/11/18 02:59:52;;;;;;;3.10;2.20;;;;;;;3.34;82.84;93356.13;2071758;69;20156;-84
2023/11/18 03:02:20;;;;;;;3.28;2.10;;;;;;;3.39;82.83;93366.34;2071559;69;20199;-84
2023/11/18 03:04:46;;;;;;;4.25;2.47;;;;;;;2.88;83.21;93339.16;2071645;69;20152;-83
2023/11/18 03:07:12;;;;;;;3.97;2.50;;;;;;;3.06;84.86;93357.63;2068388;69;20225;-85
2023/11/18 03:09:39;;;;;;;3.08;2.28;;;;;;;3.20;84.15;93370.16;2071807;69;20149;-83
2023/11/18 03:12:07;;;;;;;4.35;2.42;;;;;;;3.30;82.94;93378.78;2068242;69;20159;-86
2023/11/18 03:14:34;;;;;;;2.42;1.77;;;;;;;3.10;82.92;93366.38;2071498;69;20152;-84
2023/11/18 03:17:01;;;;;;;4.72;2.08;;;;;;;2.89;85.09;93365.69;2070014;69;20139;-83
2023/11/18 03:19:29;;;;;;;3.15;1.90;;;;;;;3.05;84.56;93365.22;2072298;69;20630;-82
2023/11/18 03:21:56;;;;;;;3.03;1.85;;;;;;;3.24;83.33;93384.47;2072612;69;20148;-82
2023/11/18 03:24:22;;;;;;;1.98;1.60;;;;;;;3.19;83.28;93374.22;2068838;69;20148;-84
2023/11/18 03:26:49;;;;;;;2.47;1.70;;;;;;;3.04;82.94;93354.66;2068561;69;20587;-84
2023/11/18 03:29:14;;;;;;;1.63;1.20;;;;;;;3.30;83.30;93395.47;2072242;69;20184;-84
2023/11/18 03:31:40;;;;;;;1.23;0.93;;;;;;;3.26;83.67;93395.06;2071707;69;20152;-82
2023/11/18 03:34:06;;;;;;;0.82;0.80;;;;;;;3.26;83.35;93397.84;2071635;69;20626;-82
2023/11/18 03:36:32;;;;;;;0.60;0.60;;;;;;;3.25;83.61;93402.66;2071469;69;20172;-84
2023/11/18 03:38:58;;;;;;;2.33;1.30;;;;;;;3.04;84.07;93399.91;2071460;69;20567;-86
2023/11/18 03:41:23;;;;;;;2.15;1.58;;;;;;;2.96;84.88;93415.06;2067954;69;20164;-82
2023/11/18 03:43:49;;;;;;;1.58;1.30;;;;;;;3.11;84.08;93415.16;2071450;69;20175;-81
2023/11/18 03:46:15;;;;;;;2.33;1.15;;;;;;;3.13;83.73;93414.63;2071627;69;20143;-82
2023/11/18 03:48:45;;;;;;;1.40;1.20;;;;;;;3.12;83.75;93416.66;2071480;69;20214;-83
2023/11/18 03:51:10;;;;;;;1.70;1.40;;;;;;;2.95;84.82;93431.00;2071421;69;20152;-81
2023/11/18 03:53:36;;;;;;;2.42;1.92;;;;;;;2.63;85.11;93436.09;2065240;69;20162;-83
2023/11/18 03:56:02;;;;;;;3.10;2.00;;;;;;;2.73;85.35;93423.19;2068019;69;20174;-81
2023/11/18 03:58:28;;;;;;;3.47;1.50;;;;;;;2.75;84.34;93420.63;2071676;69;20696;-81
2023/11/18 04:00:54;;;;;;;1.17;0.98;;;;;;;2.98;84.15;93426.41;2071518;69;20167;-85
2023/11/18 04:03:20;;;;;;;0.70;0.70;;;;;;;3.05;84.36;93432.00;2068185;69;20141;-84
2023/11/18 04:05:45;;;;;;;2.75;1.00;;;;;;;2.98;85.01;93429.19;2071447;69;20362;-84
2023/11/18 04:08:11;;;;;;;1.05;0.80;;;;;;;2.84;84.43;93397.91;2068306;69;20132;-84
2023/11/18 04:10:38;;;;;;;3.10;1.17;;;;;;;2.90;84.16;93409.63;2064133;69;20697;-83
2023/11/18 04:13:06;;;;;;;1.80;1.55;;;;;;;3.06;83.85;93432.75;2071623;69;20168;-83
2023/11/18 04:15:35;;;;;;;4.32;1.70;;;;;;;2.96;83.63;93426.19;2068100;69;20167;-83
2023/11/18 04:18:01;;;;;;;2.60;1.90;;;;;;;2.73;84.11;93428.75;2071241;69;20155;-84
2023/11/18 04:20:28;;;;;;;3.08;1.90;;;;;;;2.80;83.88;93414.94;2068084;69;20209;-85
2023/11/18 04:22:56;;;;;;;2.90;1.85;;;;;;;2.91;83.41;93422.25;2068101;69;20152;-84
2023/11/18 04:25:22;;;;;;;2.70;1.60;;;;;;;2.87;83.91;93432.22;2067977;69;20490;-83
2023/11/18 04:27:47;;;;;;;1.55;1.23;;;;;;;2.83;84.79;93432.56;2071550;69;20595;-82
2023/11/18 04:30:13;;;;;;;7.22;1.60;;;;;;;2.81;84.31;93418.47;2068136;69;20534;-86
2023/11/18 04:32:42;;;;;;;2.78;2.20;;;;;;;2.63;85.32;93419.41;2071422;69;20154;-87
2023/11/18 04:35:09;;;;;;;2.33;2.00;;;;;;;2.79;84.29;93418.25;2071534;69;20163;-82
2023/11/18 04:37:35;;;;;;;1.52;1.25;;;;;;;2.84;84.74;93420.16;2067342;69;20132;-84
2023/11/18 04:40:04;;;;;;;1.55;1.10;;;;;;;2.77;85.06;93424.34;2068120;69;20164;-85
2023/11/18 04:42:30;;;;;;;1.70;1.30;;;;;;;2.82;84.85;93427.53;2071645;69;20152;-84
2023/11/18 04:44:57;;;;;;;2.60;1.55;;;;;;;2.80;83.66;93422.53;2071748;69;20124;-85
2023/11/18 04:47:25;;;;;;;1.17;0.90;;;;;;;2.82;84.13;93428.28;2072027;69;20156;-84
2023/11/18 04:49:51;;;;;;;4.45;1.55;;;;;;;2.60;84.19;93415.66;2071747;69;20155;-85
2023/11/18 04:52:17;;;;;;;1.75;1.20;;;;;;;2.80;84.07;93428.84;2068462;69;20201;-84
2023/11/18 04:54:43;;;;;;;4.88;2.10;;;;;;;2.50;85.48;93428.53;2071790;69;20176;-84
2023/11/18 04:57:09;;;;;;;2.63;1.90;;;;;;;2.73;84.39;93437.84;2065623;69;20133;-85
2023/11/18 04:59:36;;;;;;;2.05;1.60;;;;;;;2.41;85.36;93424.19;2068445;69;20155;-85
2023/11/18 05:02:02;;;;;;;2.45;1.95;;;;;;;2.55;85.34;93433.97;2071684;69;20155;-82
2023/11/18 05:04:28;;;;;;;2.63;1.40;;;;;;;2.62;83.97;93440.16;2068345;69;20266;-86
2023/11/18 05:06:53;;;;;;;2.63;1.58;;;;;;;2.57;83.55;93441.00;2071732;69;20140;-84
2023/11/18 05:09:19;;;;;;;2.80;1.67;;;;;;;2.49;83.44;93440.94;2071721;69;20140;-86
2023/11/18 05:11:45;;;;;;;2.08;1.50;;;;;;;2.62;83.22;93460.38;2071684;69;20144;-86
2023/11/18 05:14:12;;;;;;;2.17;1.50;;;;;;;2.52;83.51;93453.75;2071793;69;20137;-84
2023/11/18 05:16:39;;;;;;;5.00;2.25;;;;;;;2.40;83.42;93447.72;2071757;69;20187;-83
2023/11/18 05:19:05;;;;;;;3.25;2.80;;;;;;;2.49;83.95;93468.75;2071643;69;20164;-83
2023/11/18 05:21:31;;;;;;;3.50;3.08;;;;;;;2.50;83.82;93481.34;2071699;69;20593;-83
2023/11/18 05:23:57;;;;;;;2.45;2.05;;;;;;;2.48;83.71;93470.78;2072094;69;20210;-85
2023/11/18 05:26:22;;;;;;;2.65;1.80;;;;;;;2.24;84.32;93454.38;2068584;69;20254;-86
2023/11/18 05:28:48;;;;;;;2.92;1.88;;;;;;;2.15;84.87;93466.69;2072062;69;20151;-84
2023/11/18 05:31:15;;;;;;;2.20;1.80;;;;;;;2.34;84.27;93461.00;2068885;69;20168;-84
2023/11/18 05:33:43;;;;;;;3.67;1.95;;;;;;;2.42;84.47;93463.84;2072258;69;20188;-87
2023/11/18 05:36:10;;;;;;;1.52;1.20;;;;;;;2.36;84.33;93457.66;2072077;69;20152;-83
2023/11/18 05:38:37;;;;;;;1.33;0.85;;;;;;;2.36;84.91;93452.84;2071993;69;20523;-83
2023/11/18 05:41:03;;;;;;;0.77;0.60;;;;;;;2.42;83.81;93456.25;2072093;69;20176;-84
2023/11/18 05:43:40;;;;;;;0.88;0.60;;;;;;;2.42;83.76;93447.16;2072227;69;20156;-85
2023/11/18 05:46:14;;;;;;;1.50;1.23;;;;;;;2.35;84.07;93447.84;2068664;69;20206;-84
2023/11/18 05:48:46;;;;;;;4.00;2.60;;;;;;;2.18;84.98;93451.00;2072261;69;20179;-85
2023/11/18 05:51:12;;;;;;;3.13;1.92;;;;;;;2.33;84.27;93450.41;2072134;69;20152;-85
2023/11/18 05:53:45;;;;;;;3.22;2.10;;;;;;;2.19;83.71;93444.13;2069016;69;20172;-84
2023/11/18 05:56:18;;;;;;;1.20;1.00;;;;;;;2.12;84.63;93451.13;2072189;69;20136;-86
2023/11/18 05:58:45;;;;;;;2.72;1.80;;;;;;;2.03;84.46;93473.78;2068712;69;20144;-84
2023/11/18 06:01:12;;;;;;;1.70;1.35;;;;;;;2.09;84.51;93471.63;2072061;69;20144;-85
2023/11/18 06:03:39;;;;;;;2.88;1.02;;;;;;;2.07;84.78;93460.31;2072068;69;20247;-85
2023/11/18 06:06:13;;;;;;;1.38;1.15;;;;;;;2.09;84.52;93457.75;2072124;69;20152;-84
2023/11/18 06:08:41;;;;;;;2.53;1.80;;;;;;;1.99;84.43;93449.09;2072040;69;20144;-85
2023/11/18 06:11:13;;;;;;;2.30;1.85;;;;;;;2.19;83.94;93460.81;2071945;69;20144;-86
2023/11/18 06:13:54;;;;;;;3.25;2.17;;;;;;;2.02;83.40;93455.63;2068681;69;20613;-84
2023/11/18 06:16:21;;;;;;;4.90;3.00;;;;;;;2.00;85.16;93472.06;2068813;69;20147;-85
2023/11/18 06:18:49;;;;;;;7.10;4.18;;;;;;;2.12;84.53;93467.78;2071983;69;20159;-84
2023/11/18 06:21:16;;;;;;;4.05;2.58;;;;;;;2.05;85.11;93473.97;2071845;69;20591;-85
2023/11/18 06:23:43;;;;;;;2.58;1.98;;;;;;;2.11;84.49;93469.06;2072022;69;20157;-86
2023/11/18 06:26:12;;;;;;;1.50;1.15;;;;;;;2.18;84.60;93476.00;2071690;69;20579;-86
2023/11/18 06:28:40;;;;;;;5.22;3.15;;;;;;;1.95;85.95;93476.44;2071871;69;20227;-86
2023/11/18 06:31:08;;;;;;;2.83;2.20;;;;;;;2.12;84.92;93475.38;2068544;69;20210;-84
2023/11/18 06:33:47;;;;;;;2.65;1.70;;;;;;;2.13;84.16;93480.38;2071782;69;20136;-83
2023/11/18 06:36:13;;;;;;;1.60;1.25;;;;;;;2.12;84.13;93503.16;2071885;69;20210;-83
2023/11/18 06:38:46;;;;;;;2.85;2.00;;;;;;;2.07;84.52;93487.34;2071830;69;20155;-83
2023/11/18 06:41:13;;;;;;;1.80;1.40;;;;;;;2.17;84.11;93491.16;2071768;69;20160;-85
2023/11/18 06:46:28;;;;;;;3.33;2.33;;;;;;;2.13;83.57;93488.72;2068890;69;20136;-85
2023/11/18 06:48:55;;;;;;;4.03;2.65;;;;;;;2.09;83.72;93493.84;2071859;69;20166;-85
2023/11/18 06:51:25;;;;;;;2.05;1.70;;;;;;;2.08;83.95;93484.03;2072148;69;20140;-84
2023/11/18 06:53:51;;;;;;;4.82;1.50;;;;;;;1.93;84.38;93473.47;2068662;69;20217;-84
2023/11/18 06:56:17;;;;;;;2.08;1.60;;;;;;;2.15;83.55;93499.28;2071669;69;20123;-85
2023/11/18 06:58:43;;;;;;;1.80;1.60;;;;;;;2.10;83.85;93489.03;2071865;69;20247;-84
2023/11/18 07:01:14;;;;;;;1.75;1.27;;;;;;;2.13;84.20;93494.28;2071857;69;20135;-83
2023/11/18 07:03:52;;;;;;;4.72;1.83;;;;;;;2.04;84.72;93492.69;2071848;69;20160;-84
2023/11/18 07:06:26;;;;;;;40.97;15.77;;;;;;;1.84;86.42;93496.13;2071853;69;20144;-83
2023/11/18 07:08:52;;;;;;;47.25;17.17;;;;;;;2.04;84.91;93486.38;2068431;69;20291;-85
2023/11/18 07:11:22;;;;;;;42.08;14.38;;;;;;;2.10;84.29;93489.03;2071681;69;20132;-85
2023/11/18 07:13:49;;;;;;;60.25;18.67;;;;;;;2.15;84.49;93488.16;2071835;69;20511;-84
2023/11/18 07:16:15;;;;;;;32.25;11.93;;;;;;;2.22;84.35;93479.19;2071700;69;20147;-83
2023/11/18 07:18:44;;;;;;;40.53;14.82;;;;;;;2.10;83.79;93487.00;2067850;69;20671;-84
2023/11/18 07:21:10;;;;;;;48.08;19.75;;;;;;;2.20;83.99;93495.63;2068648;69;20239;-81
2023/11/18 07:23:38;;;;;;;39.92;16.77;;;;;;;2.23;83.85;93500.88;2068498;69;20175;-82
2023/11/18 07:26:05;;;;;;;27.38;11.65;;;;;;;2.19;83.68;93502.47;2068427;69;20157;-83
2023/11/18 07:28:31;;;;;;;31.45;13.93;;;;;;;1.95;83.79;93484.03;2068542;69;20604;-82
2023/11/18 07:30:58;;;;;;;33.33;16.52;;;;;;;2.06;83.88;93514.34;2068481;69;20132;-82
2023/11/18 07:33:23;;;;;;;41.35;18.83;;;;;;;2.10;83.92;93522.38;2068035;69;20180;-82
2023/11/18 07:35:52;;;;;;;48.90;22.45;;;;;;;2.13;84.11;93529.63;2068649;69;20504;-82
2023/11/18 07:38:20;;;;;;;44.92;19.35;;;;;;;2.13;83.69;93535.19;2067954;69;20162;-80
2023/11/18 07:40:47;;;;;;;53.05;26.55;;;;;;;2.12;83.74;93536.47;2068404;69;20141;-83
2023/11/18 07:43:14;;;;;;;48.75;23.73;;;;;;;2.20;83.74;93545.66;2067983;69;20163;-84
2023/11/18 07:45:41;;;;;;;55.13;25.73;;;;;;;2.13;83.92;93549.09;2067898;69;20144;-82
2023/11/18 07:48:16;;;;;;;88.88;38.35;;;;;;;2.01;83.96;93538.19;2068708;69;20148;-82
2023/11/18 07:50:47;;;;;;;74.95;34.70;;;;;;;2.10;84.30;93542.56;2067991;69;20141;-81
2023/11/18 07:53:17;;;;;;;80.78;38.05;;;;;;;2.10;83.64;93525.88;2068568;69;20622;-82
2023/11/18 07:55:45;;;;;;;85.65;47.88;;;;;;;2.25;83.16;93525.34;2068411;69;20176;-81
2023/11/18 07:58:12;;;;;;;88.80;52.83;;;;;;;2.19;83.54;93524.72;2062167;69;20155;-81
2023/11/18 08:00:38;;;;;;;79.60;49.08;;;;;;;2.24;83.50;93530.13;2068445;69;20156;-81
2023/11/18 08:03:11;;;;;;;37.30;21.25;;;;;;;2.31;84.19;93528.75;2068491;69;20172;-81
2023/11/18 08:05:43;;;;;;;22.63;13.25;;;;;;;2.42;83.78;93522.94;2068392;69;20173;-82
2023/11/18 08:08:12;;;;;;;12.43;7.38;;;;;;;2.43;84.04;93523.69;2068587;69;20145;-81
2023/11/18 08:10:39;;;;;;;4.22;2.75;;;;;;;2.55;84.38;93534.03;2068330;69;20211;-82
2023/11/18 08:13:07;;;;;;;2.00;1.30;;;;;;;2.54;83.90;93527.00;2068436;69;20144;-82
2023/11/18 08:15:46;;;;;;;12.77;7.93;;;;;;;2.55;84.15;93547.19;2068404;69;20149;-82
2023/11/18 08:18:11;;;;;;;23.30;13.85;;;;;;;2.71;85.58;93540.53;2068778;69;20199;-82
2023/11/18 08:20:41;;;;;;;17.13;10.38;;;;;;;3.20;86.89;93551.03;2071818;69;20575;-82
2023/11/18 08:23:06;;;;;;;15.40;9.20;;;;;;;3.59;85.13;93540.22;2071820;69;20579;-82
2023/11/18 08:25:33;;;;;;;23.63;12.50;;;;;;;3.90;84.18;93536.38;2071718;69;20147;-82
2023/11/18 08:28:00;;;;;;;32.85;17.45;;;;;;;4.01;85.60;93549.97;2071886;69;20554;-82
2023/11/18 08:30:26;;;;;;;29.95;16.08;;;;;;;4.30;84.23;93549.97;2071723;69;20286;-81
2023/11/18 08:32:52;;;;;;;16.00;9.10;;;;;;;4.68;82.66;93560.56;2071710;69;20247;-84
2023/11/18 08:35:18;;;;;;;15.73;10.50;;;;;;;5.02;81.89;93557.50;2071727;69;20132;-81
2023/11/18 08:37:45;;;;;;;20.10;12.63;;;;;;;5.14;80.92;93553.06;2071656;69;20156;-83
2023/11/18 08:40:14;;;;;;;12.15;7.28;;;;;;;5.10;80.48;93561.06;2068350;69;20152;-79
2023/11/18 08:42:49;;;;;;;11.00;7.05;;;;;;;5.07;78.77;93565.69;2071719;69;20141;-81
2023/11/18 08:45:21;;;;;;;15.25;8.50;;;;;;;5.59;78.72;93548.84;2071759;69;20579;-80
2023/11/18 08:47:47;;;;;;;11.63;7.55;;;;;;;6.11;78.97;93549.41;2068402;69;20231;-81
2023/11/18 08:50:16;;;;;;;15.68;8.10;;;;;;;6.35;79.31;93545.25;2071736;69;20153;-81
2023/11/18 08:52:46;;;;;;;9.18;6.53;;;;;;;6.49;77.19;93532.53;2071935;69;20148;-81
2023/11/18 08:55:21;;;;;;;7.82;5.88;;;;;;;6.44;74.55;93521.53;2071794;69;20624;-82
2023/11/18 08:57:57;;;;;;;7.60;3.92;;;;;;;6.41;74.17;93533.84;2068307;69;20152;-83
2023/11/18 09:03:17;;;;;;;7.63;4.70;;;;;;;6.92;75.62;93541.13;2065946;69;20144;-80
2023/11/18 09:06:03;;;;;;;6.45;4.45;;;;;;;6.92;73.08;93550.28;2068308;69;20158;-80
2023/11/18 09:08:42;;;;;;;5.80;4.35;;;;;;;7.48;72.84;93545.28;2068822;69;20159;-81
2023/11/18 09:11:17;;;;;;;6.07;4.18;;;;;;;7.67;70.42;93549.66;2071473;69;20129;-81
2023/11/18 09:13:47;;;;;;;4.90;3.40;;;;;;;7.84;69.45;93556.06;2071727;69;20140;-81
2023/11/18 09:16:13;;;;;;;4.40;3.30;;;;;;;7.99;69.40;93562.84;2071733;69;20239;-81
2023/11/18 09:18:43;;;;;;;5.93;3.30;;;;;;;7.96;67.94;93564.72;2071598;69;20151;-81
2023/11/18 09:21:14;;;;;;;8.10;4.90;;;;;;;7.76;68.96;93568.63;2068701;69;20143;-81
2023/11/18 09:23:42;;;;;;;6.78;4.20;;;;;;;7.90;68.99;93539.72;2071764;69;20200;-81
2023/11/18 09:26:10;;;;;;;7.53;4.30;;;;;;;8.19;67.93;93541.34;2071582;69;20144;-80
2023/11/18 09:28:37;;;;;;;9.65;5.32;;;;;;;8.46;67.96;93547.84;2068654;69;20198;-80
2023/11/18 09:31:04;;;;;;;6.18;4.13;;;;;;;8.59;67.11;93541.91;2071822;69;20254;-80
2023/11/18 09:33:39;;;;;;;4.68;3.17;;;;;;;8.53;66.67;93538.59;2071892;69;20176;-80
2023/11/18 09:36:12;;;;;;;4.78;3.30;;;;;;;8.37;66.30;93526.78;2072026;69;20152;-82
2023/11/18 09:38:42;;;;;;;11.70;7.80;;;;;;;8.32;66.08;93536.16;2071733;69;20152;-82
2023/11/18 09:41:11;;;;;;;6.15;3.95;;;;;;;8.34;65.84;93532.81;2071512;69;20156;-80
2023/11/18 09:43:47;;;;;;;7.63;4.80;;;;;;;8.76;64.51;93526.38;2071468;69;20151;-81
2023/11/18 09:46:16;;;;;;;5.32;3.90;;;;;;;8.59;65.24;93521.50;2071793;69;20136;-81
2023/11/18 09:48:59;;;;;;;7.05;3.72;;;;;;;9.00;63.61;93525.50;2071543;69;20177;-81
2023/11/18 09:51:30;;;;;;;4.95;3.60;;;;;;;8.98;63.49;93516.16;2071508;69;20144;-81
2023/11/18 09:54:00;;;;;;;4.97;3.28;;;;;;;9.36;62.96;93524.84;2068105;69;20136;-82
2023/11/18 09:57:08;;;;;;;6.10;3.92;;;;;;;9.60;62.71;93536.50;2067930;69;20145;-82
2023/11/18 09:59:59;;;;;;;7.55;3.00;;;;;;;9.10;62.92;93528.38;2071637;69;20260;-82
2023/11/18 10:02:25;;;;;;;2.80;1.80;;;;;;;8.96;64.11;93528.00;2071605;69;20164;-82
2023/11/18 10:04:57;;;;;;;2.42;1.70;;;;;;;8.92;61.77;93522.03;2071387;69;20219;-83
2023/11/18 10:07:30;;;;;;;2.65;1.80;;;;;;;10.02;61.75;93512.94;2071398;69;20200;-82
2023/11/18 10:09:57;;;;;;;2.92;2.03;;;;;;;10.31;60.03;93522.25;2072039;69;20128;-82
2023/11/18 10:12:26;;;;;;;3.30;2.22;;;;;;;9.65;59.78;93515.78;2071620;69;20211;-83
2023/11/18 10:14:54;;;;;;;4.90;2.92;;;;;;;10.28;58.85;93511.41;2068560;69;20251;-82
2023/11/18 10:17:22;;;;;;;5.38;3.22;;;;;;;11.24;59.15;93515.56;2068592;69;20156;-82
2023/11/18 10:19:56;;;;;;;4.35;2.65;;;;;;;11.50;56.54;93516.66;2071835;69;20160;-81
2023/11/18 10:22:24;;;;;;;2.88;2.28;;;;;;;11.20;56.35;93516.75;2072067;69;20144;-82
2023/11/18 10:24:54;;;;;;;2.45;1.98;;;;;;;10.30;57.04;93517.19;2072030;69;20136;-82
2023/11/18 10:27:28;;;;;;;3.58;1.90;;;;;;;11.63;56.33;93505.63;2071805;69;20148;-82
2023/11/18 10:30:04;;;;;;;2.47;1.80;;;;;;;10.78;55.62;93510.84;2071925;69;20148;-81
2023/11/18 10:32:35;;;;;;;2.70;1.60;;;;;;;11.86;54.34;93507.94;2071932;69;20148;-82
2023/11/18 10:35:04;;;;;;;1.98;1.77;;;;;;;11.07;54.90;93508.00;2071898;69;20125;-83
2023/11/18 10:37:31;;;;;;;2.10;1.60;;;;;;;12.84;52.93;93506.00;2071904;69;20159;-82
2023/11/18 10:39:57;;;;;;;3.17;1.40;;;;;;;13.58;50.55;93513.53;2068515;69;20143;-82
2023/11/18 10:42:30;;;;;;;8.52;5.20;;;;;;;14.26;49.76;93512.72;2071810;69;20128;-85
2023/11/18 10:44:57;;;;;;;;;;;;;;;15.29;48.75;93520.84;2072135;69;20160;-84
2023/11/18 10:47:26;;;;;;;2.25;1.95;;;;;;;14.16;50.76;93513.59;2072110;69;20204;-84
2023/11/18 10:49:55;;;;;;;2.45;2.10;;;;;;;16.71;46.80;93502.19;2071876;69;20552;-85
2023/11/18 10:52:23;;;;;;;4.22;2.92;;;;;;;17.26;47.25;93507.78;2071965;69;20559;-86
2023/11/18 10:54:56;;;;;;;4.72;3.10;;;;;;;16.90;47.03;93506.72;2071968;69;20140;-85
2023/11/18 10:57:22;;;;;;;2.78;2.42;;;;;;;17.01;46.72;93507.97;2072368;69;20637;-86
2023/11/18 11:00:14;;;;;;;3.30;2.10;;;;;;;17.36;45.38;93506.81;2072339;69;20144;-87
2023/11/18 11:02:41;;;;;;;4.13;3.40;;;;;;;19.18;44.42;93512.91;2072029;69;20156;-82
2023/11/18 11:05:15;;;;;;;3.30;2.97;;;;;;;18.41;42.88;93533.09;2071990;69;20223;-85
2023/11/18 11:07:42;;;;;;;3.72;3.08;;;;;;;18.07;44.35;93526.56;2072055;69;20155;-83
2023/11/18 11:10:10;;;;;;;4.15;2.80;;;;;;;19.85;42.13;93526.34;2071717;69;20132;-82
2023/11/18 11:12:53;;;;;;;3.03;2.63;;;;;;;18.10;40.78;93505.31;2068515;69;20155;-83
2023/11/18 11:15:31;;;;;;;1.80;1.70;;;;;;;18.66;41.14;93512.09;2071838;69;20152;-82
2023/11/18 11:18:09;;;;;;;2.47;2.28;;;;;;;20.25;39.65;93510.00;2071731;69;20209;-84
2023/11/18 11:20:44;;;;;;;3.60;2.50;;;;;;;20.96;38.97;93503.31;2071618;69;20539;-83
2023/11/18 11:23:32;;;;;;;4.72;2.60;;;;;;;19.00;41.65;93513.59;2068509;69;20144;-84
2023/11/18 11:26:08;;;;;;;5.28;4.22;;;;;;;20.28;38.73;93503.72;2068292;69;20136;-86
2023/11/18 11:28:47;;;;;;;5.45;3.83;;;;;;;19.83;39.18;93515.56;2071822;69;20168;-86
2023/11/18 11:31:25;;;;;;;7.25;5.20;;;;;;;21.07;37.72;93516.56;2068570;69;20472;-85
2023/11/18 11:34:14;;;;;;;7.18;5.15;;;;;;;18.29;39.35;93528.31;2071809;69;20621;-83
2023/11/18 11:36:50;;;;;;;4.22;3.25;;;;;;;17.18;42.12;93521.63;2069614;69;20603;-85
2023/11/18 11:39:17;;;;;;;2.53;2.33;;;;;;;16.32;43.72;93533.56;2071852;69;20227;-82
2023/11/18 11:41:51;;;;;;;2.00;1.60;;;;;;;15.33;43.51;93537.38;2071748;69;20182;-84
2023/11/18 11:44:27;;;;;;;2.08;1.60;;;;;;;14.37;45.71;93517.63;2071752;69;20140;-81
2023/11/18 11:46:53;;;;;;;2.28;1.60;;;;;;;14.01;47.05;93502.72;2071982;69;20236;-83
2023/11/18 11:49:22;;;;;;;2.40;1.88;;;;;;;14.97;46.34;93514.81;2071761;69;20152;-83
2023/11/18 11:51:54;;;;;;;4.45;3.22;;;;;;;14.40;47.15;93505.81;2071398;69;20147;-82
2023/11/18 11:54:29;;;;;;;7.55;4.60;;;;;;;14.35;46.29;93506.91;2071685;69;20144;-81